Time;durP1;ratioP1;P1;durP2;ratioP2;P2;SDS_P1;SDS_P2;PMS_P1;PMS_P2;Temp;Humidity;BMP_temperature;BMP_pressure;BME280_temperature;BME280_humidity;BME280_pressure;Samples;Min_cycle;Max_cycle;Signal;HPM_P1;HPM_P2
2023/12/27 00:02:51;;;;;;;9.98;2.38;;;;;;;19.75;51.05;101994.13;16109872;19;130876;-65
2023/12/27 00:08:13;;;;;;;6.60;2.03;;;;;;;19.69;50.83;101971.72;16111337;19;129787;-65
2023/12/27 00:13:35;;;;;;;6.65;2.20;;;;;;;19.64;51.19;101973.50;16106084;19;131249;-65
2023/12/27 00:18:57;;;;;;;7.97;1.77;;;;;;;19.61;51.00;101972.03;16098260;19;130910;-65
2023/12/27 00:24:19;;;;;;;7.68;1.75;;;;;;;19.58;51.00;101966.09;16093240;19;130036;-65
2023/12/27 00:29:41;;;;;;;8.80;2.58;;;;;;;19.55;50.99;101981.28;16095089;19;132008;-65
2023/12/27 00:35:03;;;;;;;4.88;1.92;;;;;;;19.51;51.34;101985.59;16097825;19;130184;-64
2023/12/27 00:40:25;;;;;;;7.22;2.00;;;;;;;19.48;51.21;101966.59;16099082;19;129857;-65
2023/12/27 00:45:47;;;;;;;5.97;1.75;;;;;;;19.44;51.19;101952.34;16097152;19;131245;-64
2023/12/27 00:51:19;;;;;;;5.80;1.88;;;;;;;19.42;51.07;101948.09;16103346;19;132331;-65
2023/12/27 00:56:42;;;;;;;5.32;1.70;;;;;;;19.37;51.40;101949.63;16103732;19;129630;-64
2023/12/27 01:02:06;;;;;;;4.13;1.77;;;;;;;19.35;51.46;101959.25;16105510;19;131197;-65
2023/12/27 01:07:30;;;;;;;5.68;2.15;;;;;;;19.31;51.01;101947.75;16098393;19;133776;-64
2023/12/27 01:12:52;;;;;;;3.85;1.73;;;;;;;19.29;51.23;101944.34;16103574;19;130001;-64
2023/12/27 01:18:14;;;;;;;6.25;1.83;;;;;;;19.27;50.87;101951.19;16102532;19;131558;-64
2023/12/27 01:23:36;;;;;;;4.32;1.38;;;;;;;19.25;50.91;101947.81;16107347;19;130099;-64
2023/12/27 01:28:58;;;;;;;3.70;1.52;;;;;;;19.21;51.28;101947.38;16106627;19;131007;-63
2023/12/27 01:34:20;;;;;;;5.00;1.60;;;;;;;19.19;51.21;101938.44;16102273;19;131617;-65
2023/12/27 01:39:44;;;;;;;9.73;2.00;;;;;;;19.17;51.15;101918.38;16110503;19;131113;-63
2023/12/27 01:45:07;;;;;;;3.95;1.70;;;;;;;19.14;51.14;101919.66;16112164;19;129737;-64
2023/12/27 01:50:29;;;;;;;4.40;1.42;;;;;;;19.13;51.17;101917.13;16105045;19;129670;-64
2023/12/27 01:55:52;;;;;;;2.88;1.50;;;;;;;19.10;51.08;101912.03;16104864;19;130093;-64
2023/12/27 02:01:15;;;;;;;3.72;1.52;;;;;;;19.08;50.66;101910.31;16109311;19;129754;-63
2023/12/27 02:06:38;;;;;;;3.17;1.60;;;;;;;19.05;50.98;101913.56;16110152;19;131469;-64
2023/12/27 02:12:00;;;;;;;3.70;1.35;;;;;;;19.04;50.48;101920.19;16113343;19;129963;-63
2023/12/27 02:17:23;;;;;;;4.03;1.70;;;;;;;19.02;50.70;101911.25;16115834;19;130674;-64
2023/12/27 02:22:49;;;;;;;4.22;1.88;;;;;;;19.00;50.57;101902.28;16116726;19;131756;-64
2023/12/27 02:28:11;;;;;;;4.90;1.40;;;;;;;18.98;50.32;101898.06;16109768;19;129248;-64
2023/12/27 02:33:34;;;;;;;3.40;1.30;;;;;;;18.95;50.58;101882.72;16116984;19;130249;-64
2023/12/27 02:38:56;;;;;;;2.70;1.50;;;;;;;18.93;50.62;101871.00;16117689;19;130815;-63
2023/12/27 02:44:18;;;;;;;3.72;1.30;;;;;;;18.90;50.54;101869.50;16115462;19;130559;-62
2023/12/27 02:49:40;;;;;;;4.53;1.98;;;;;;;18.90;50.40;101857.59;16112171;19;131953;-63
2023/12/27 02:55:03;;;;;;;3.95;1.95;;;;;;;18.87;50.39;101841.41;16108975;19;129349;-63
2023/12/27 03:00:25;;;;;;;5.20;1.30;;;;;;;18.86;49.96;101848.00;16114619;19;132159;-63
2023/12/27 03:05:47;;;;;;;3.10;1.40;;;;;;;18.84;49.89;101836.28;16114353;19;130235;-63
2023/12/27 03:11:09;;;;;;;5.95;1.42;;;;;;;18.83;50.31;101812.44;16109269;19;130833;-63
2023/12/27 03:16:31;;;;;;;3.22;1.48;;;;;;;18.82;50.24;101805.19;16108034;19;129658;-62
2023/12/27 03:21:54;;;;;;;4.20;1.45;;;;;;;18.80;49.86;101799.03;16113387;19;130052;-62
2023/12/27 03:27:16;;;;;;;4.80;1.40;;;;;;;18.77;49.86;101792.84;16109973;19;129630;-63
2023/12/27 03:32:38;;;;;;;3.63;1.30;;;;;;;18.75;49.94;101789.47;16114347;19;130908;-63
2023/12/27 03:38:00;;;;;;;4.25;1.48;;;;;;;18.75;49.79;101780.31;16111688;19;131042;-63
2023/12/27 03:43:22;;;;;;;4.32;1.52;;;;;;;18.73;49.54;101766.66;16114622;19;129760;-63
2023/12/27 03:48:44;;;;;;;5.53;1.48;;;;;;;18.70;49.48;101767.13;16113936;19;130660;-63
2023/12/27 03:54:06;;;;;;;3.40;1.45;;;;;;;18.70;49.51;101756.03;16108753;19;131077;-63
2023/12/27 03:59:28;;;;;;;4.38;1.40;;;;;;;18.68;49.17;101744.34;16109432;19;130910;-63
2023/12/27 04:04:51;;;;;;;3.80;1.67;;;;;;;18.67;49.06;101731.53;16110584;19;129966;-64
2023/12/27 04:10:13;;;;;;;4.50;1.52;;;;;;;18.67;49.30;101730.69;16111252;19;131025;-63
2023/12/27 04:15:35;;;;;;;4.38;1.65;;;;;;;18.66;49.10;101729.84;16112674;19;130278;-63
2023/12/27 04:20:57;;;;;;;3.67;1.30;;;;;;;18.64;48.78;101720.06;16115985;19;129934;-63
2023/12/27 04:26:19;;;;;;;3.65;1.33;;;;;;;18.62;48.99;101717.50;16111069;19;130973;-62
2023/12/27 04:31:41;;;;;;;3.00;1.13;;;;;;;18.61;48.80;101715.81;16107411;19;129419;-63
2023/12/27 04:37:03;;;;;;;3.38;1.70;;;;;;;18.60;48.65;101714.09;16106996;19;130282;-62
2023/12/27 04:42:28;;;;;;;2.58;1.35;;;;;;;18.59;48.67;101698.56;16104306;19;129979;-63
2023/12/27 04:47:51;;;;;;;2.75;1.42;;;;;;;18.56;48.44;101691.56;16105478;19;130444;-63
2023/12/27 04:53:13;;;;;;;3.38;1.38;;;;;;;18.55;48.23;101678.78;16103813;19;130908;-65
2023/12/27 04:58:36;;;;;;;3.08;1.40;;;;;;;18.54;48.54;101676.25;16107243;19;131418;-62
2023/12/27 05:03:58;;;;;;;3.00;1.40;;;;;;;18.52;48.64;101679.25;16105998;19;129956;-64
2023/12/27 05:09:20;;;;;;;2.38;1.30;;;;;;;18.53;48.18;101677.31;16106058;19;132971;-63
2023/12/27 05:14:43;;;;;;;3.97;1.48;;;;;;;18.52;47.91;101670.06;16103083;19;131250;-63
2023/12/27 05:20:06;;;;;;;3.63;1.05;;;;;;;18.50;47.87;101652.81;16110702;19;129616;-65
2023/12/27 05:25:28;;;;;;;3.70;1.20;;;;;;;18.48;47.84;101649.41;16105796;19;129471;-63
2023/12/27 05:30:50;;;;;;;3.58;1.23;;;;;;;18.47;47.92;101648.59;16103924;19;131451;-62
2023/12/27 05:36:13;;;;;;;2.05;1.00;;;;;;;18.46;47.96;101647.72;16102049;19;131156;-62
2023/12/27 05:41:35;;;;;;;3.58;1.30;;;;;;;18.45;47.75;101640.50;16104050;19;132149;-62
2023/12/27 05:46:57;;;;;;;2.60;1.20;;;;;;;18.44;47.54;101643.50;16104471;19;131580;-62
2023/12/27 05:52:19;;;;;;;3.42;1.30;;;;;;;18.43;47.62;101637.13;16100642;19;129146;-63
2023/12/27 05:57:41;;;;;;;3.75;1.13;;;;;;;18.42;47.91;101632.66;16099454;19;131215;-63
2023/12/27 06:03:03;;;;;;;4.22;1.10;;;;;;;18.39;48.31;101608.16;16104870;19;130333;-62
2023/12/27 06:08:26;;;;;;;2.47;1.30;;;;;;;18.39;47.79;101594.31;16117229;19;129901;-62
2023/12/27 06:13:49;;;;;;;3.00;1.00;;;;;;;18.38;48.06;101600.91;16115496;19;130676;-62
2023/12/27 06:19:11;;;;;;;3.55;1.20;;;;;;;18.39;47.86;101588.78;16110414;19;130542;-62
2023/12/27 06:24:34;;;;;;;3.00;1.10;;;;;;;18.38;48.22;101597.28;16114294;19;129698;-62
2023/12/27 06:29:56;;;;;;;2.67;0.98;;;;;;;18.37;48.30;101593.66;16116292;19;129865;-63
2023/12/27 06:35:18;;;;;;;3.17;0.80;;;;;;;18.36;48.48;101589.19;16119215;19;129748;-62
2023/12/27 06:40:40;;;;;;;3.70;1.20;;;;;;;18.36;48.34;101583.66;16114648;19;135673;-62
2023/12/27 06:46:02;;;;;;;2.45;1.20;;;;;;;18.34;48.78;101583.03;16109034;19;130958;-62
2023/12/27 06:51:24;;;;;;;2.15;1.08;;;;;;;18.34;48.42;101580.25;16112900;19;130679;-63
2023/12/27 06:56:46;;;;;;;4.85;1.17;;;;;;;18.34;48.35;101588.56;16111067;19;131163;-63
2023/12/27 07:02:12;;;;;;;3.75;1.13;;;;;;;18.33;48.76;101592.44;16114199;19;131034;-63
2023/12/27 07:07:34;;;;;;;3.92;1.10;;;;;;;18.31;48.41;101550.28;16109411;19;129613;-63
2023/12/27 07:12:57;;;;;;;2.08;1.10;;;;;;;18.30;48.35;101537.50;16108224;19;129916;-61
2023/12/27 07:18:20;;;;;;;3.50;0.88;;;;;;;18.30;48.37;101531.94;16116109;19;130807;-61
2023/12/27 07:23:42;;;;;;;5.18;1.05;;;;;;;18.28;48.88;101528.56;16109754;19;129658;-61
2023/12/27 07:29:04;;;;;;;2.13;0.95;;;;;;;18.25;48.56;101529.88;16110753;19;129763;-61
2023/12/27 07:34:27;;;;;;;6.00;1.08;;;;;;;18.23;48.45;101529.25;16113349;19;130019;-61
2023/12/27 07:39:52;;;;;;;1.43;1.00;;;;;;;18.23;48.55;101536.69;16104937;19;129932;-62
2023/12/27 07:45:15;;;;;;;3.03;0.90;;;;;;;18.21;48.68;101530.56;16115143;19;129416;-60
2023/12/27 07:50:37;;;;;;;2.90;0.85;;;;;;;18.18;48.53;101531.00;16112254;19;129285;-61
2023/12/27 07:55:59;;;;;;;3.45;1.17;;;;;;;18.17;48.52;101532.09;16110476;19;131447;-61
2023/12/27 08:01:30;;;;;;;3.13;1.30;;;;;;;18.15;48.50;101524.84;16112109;19;129543;-61
2023/12/27 08:06:52;;;;;;;3.45;0.93;;;;;;;18.12;48.30;101514.22;16110399;19;129450;-64
2023/12/27 08:12:14;;;;;;;1.77;0.88;;;;;;;18.10;48.67;101508.06;16108485;19;130261;-61
2023/12/27 08:17:36;;;;;;;3.47;0.88;;;;;;;18.09;48.69;101503.59;16109801;19;132381;-61
2023/12/27 08:22:58;;;;;;;1.63;0.90;;;;;;;18.09;48.13;101495.28;16111888;19;130031;-59
2023/12/27 08:28:20;;;;;;;1.35;0.70;;;;;;;18.07;48.05;101505.78;16106958;19;130415;-61
2023/12/27 08:33:47;;;;;;;1.50;0.80;;;;;;;18.06;48.24;101512.38;16103028;19;129920;-61
2023/12/27 08:39:09;;;;;;;1.08;0.70;;;;;;;18.04;47.85;101500.69;16109438;19;130269;-61
2023/12/27 08:44:31;;;;;;;1.67;0.70;;;;;;;18.04;47.83;101478.53;16109535;19;131552;-61
2023/12/27 08:49:55;;;;;;;0.57;0.50;;;;;;;18.03;47.87;101490.69;16108611;19;129727;-61
2023/12/27 08:55:17;;;;;;;1.05;0.50;;;;;;;18.03;48.07;101493.47;16105718;19;129654;-61
2023/12/27 09:00:40;;;;;;;0.93;0.60;;;;;;;18.03;47.80;101496.22;16107808;19;129967;-61
2023/12/27 09:06:02;;;;;;;0.70;0.55;;;;;;;18.02;47.72;101477.91;16098045;19;129669;-60
2023/12/27 09:11:25;;;;;;;0.93;0.50;;;;;;;18.02;47.31;101468.78;16106335;19;129738;-60
2023/12/27 09:17:03;;;;;;;1.25;0.60;;;;;;;18.02;47.31;101482.63;16105228;19;129782;-61
2023/12/27 09:22:25;;;;;;;4.68;0.60;;;;;;;18.01;47.17;101465.16;16100649;19;129832;-60
2023/12/27 09:27:47;;;;;;;5.05;0.68;;;;;;;18.00;46.93;101461.53;16100897;19;131243;-60
2023/12/27 09:33:09;;;;;;;4.45;0.63;;;;;;;18.00;47.01;101467.09;16096995;19;129316;-60
2023/12/27 09:38:37;;;;;;;4.03;0.83;;;;;;;17.98;47.11;101460.06;16104550;19;131032;-60
2023/12/27 09:44:03;;;;;;;2.58;0.60;;;;;;;17.98;47.25;101446.22;16118341;19;131097;-61
2023/12/27 09:49:27;;;;;;;5.00;0.68;;;;;;;17.98;47.18;101462.81;16119190;19;129695;-61
2023/12/27 09:54:50;;;;;;;5.35;0.60;;;;;;;17.96;46.87;101481.63;16119702;19;129356;-61
2023/12/27 10:00:12;;;;;;;5.07;0.50;;;;;;;17.96;46.97;101467.78;16118543;19;130552;-60
2023/12/27 10:05:45;;;;;;;2.95;0.43;;;;;;;17.95;46.74;101474.38;16115387;19;130386;-61
2023/12/27 10:11:09;;;;;;;5.78;0.68;;;;;;;17.92;47.11;101463.75;16115251;19;131092;-60
2023/12/27 10:16:31;;;;;;;5.88;1.13;;;;;;;17.92;46.96;101452.69;16117482;19;130268;-60
2023/12/27 10:21:53;;;;;;;4.32;0.70;;;;;;;17.90;46.79;101432.69;16117515;19;130702;-59
2023/12/27 10:27:15;;;;;;;2.65;0.60;;;;;;;17.89;47.01;101437.38;16120125;19;135310;-61
2023/12/27 10:32:39;;;;;;;2.47;0.60;;;;;;;17.89;46.70;101422.69;16124165;19;130296;-61
2023/12/27 10:38:06;;;;;;;4.10;0.43;;;;;;;17.87;46.93;101427.59;16120645;19;129911;-61
2023/12/27 10:43:31;;;;;;;1.42;0.28;;;;;;;17.88;46.44;101419.09;16118798;19;130915;-62
2023/12/27 10:48:56;;;;;;;1.85;0.50;;;;;;;17.88;46.70;101407.16;16114151;19;129312;-61
2023/12/27 10:54:21;;;;;;;2.20;0.80;;;;;;;17.87;46.75;101398.00;16116467;19;129554;-60
2023/12/27 10:59:47;;;;;;;1.27;0.50;;;;;;;17.89;46.44;101386.69;16115763;19;131903;-61
2023/12/27 11:05:10;;;;;;;2.63;0.55;;;;;;;17.89;46.49;101381.16;16113204;19;130081;-60
2023/12/27 11:10:35;;;;;;;1.58;0.60;;;;;;;17.88;46.45;101374.81;16108699;19;133056;-61
2023/12/27 11:15:58;;;;;;;1.30;0.60;;;;;;;17.90;46.39;101369.03;16110404;19;130603;-61
2023/12/27 11:21:20;;;;;;;3.03;0.60;;;;;;;17.90;46.42;101371.78;16111637;19;129705;-60
2023/12/27 11:26:43;;;;;;;5.38;0.80;;;;;;;17.89;46.18;101361.78;16111050;19;129732;-60
2023/12/27 11:32:06;;;;;;;2.85;0.70;;;;;;;17.91;46.11;101359.63;16111662;19;130247;-60
2023/12/27 11:37:28;;;;;;;3.53;0.60;;;;;;;17.91;46.29;101351.34;16114238;19;131473;-61
2023/12/27 11:42:50;;;;;;;2.58;0.40;;;;;;;17.91;46.60;101335.56;16112240;19;129793;-61
2023/12/27 11:48:12;;;;;;;2.30;0.50;;;;;;;17.91;46.68;101307.88;16108926;19;129283;-62
2023/12/27 11:53:35;;;;;;;2.50;0.68;;;;;;;17.93;46.45;101297.44;16111132;19;129560;-60
2023/12/27 11:58:58;;;;;;;1.67;0.60;;;;;;;17.94;46.61;101296.34;16110436;19;129916;-60
2023/12/27 12:04:32;;;;;;;4.30;0.70;;;;;;;17.98;46.42;101285.66;16109514;19;132622;-60
2023/12/27 12:09:54;;;;;;;2.05;0.57;;;;;;;17.97;46.20;101270.16;16109003;19;130392;-61
2023/12/27 12:15:19;;;;;;;1.63;0.82;;;;;;;17.98;46.50;101257.97;16110255;19;129451;-61
2023/12/27 12:20:42;;;;;;;3.77;0.73;;;;;;;17.97;46.23;101248.84;16111053;19;131801;-61
2023/12/27 12:26:05;;;;;;;1.63;0.65;;;;;;;17.97;46.24;101246.06;16109778;19;130208;-60
2023/12/27 12:31:27;;;;;;;2.45;0.70;;;;;;;17.96;46.44;101232.47;16104417;19;129481;-61
2023/12/27 12:36:50;;;;;;;1.25;0.57;;;;;;;17.97;46.00;101223.09;16107152;19;129695;-61
2023/12/27 12:42:12;;;;;;;5.47;0.80;;;;;;;17.95;46.25;101206.69;16109822;19;129355;-60
2023/12/27 12:47:35;;;;;;;3.22;0.93;;;;;;;17.96;45.87;101194.53;16109575;19;129990;-60
2023/12/27 12:52:57;;;;;;;4.13;0.93;;;;;;;17.96;45.65;101182.66;16109219;19;129312;-60
2023/12/27 12:58:19;;;;;;;8.15;1.00;;;;;;;17.95;46.08;101175.41;16105759;19;129453;-61
2023/12/27 13:03:43;;;;;;;4.65;0.93;;;;;;;17.93;46.15;101166.50;16104338;19;129973;-60
2023/12/27 13:09:07;;;;;;;4.35;0.95;;;;;;;17.92;45.90;101149.03;16105121;19;129724;-60
2023/12/27 13:14:40;;;;;;;4.25;1.00;;;;;;;17.92;45.87;101142.66;16114077;19;129510;-60
2023/12/27 13:20:04;;;;;;;5.65;0.82;;;;;;;17.90;45.85;101139.28;16118128;19;130849;-60
2023/12/27 13:25:26;;;;;;;4.13;0.90;;;;;;;17.88;45.66;101130.38;16120392;19;129603;-60
2023/12/27 13:30:48;;;;;;;2.75;1.00;;;;;;;17.87;45.83;101121.25;16120732;19;129526;-60
2023/12/27 13:36:13;;;;;;;2.50;0.95;;;;;;;17.85;45.68;101104.84;16117085;19;131601;-60
2023/12/27 13:41:35;;;;;;;1.65;0.70;;;;;;;17.83;45.95;101101.50;16122197;19;130510;-60
2023/12/27 13:46:57;;;;;;;1.65;0.85;;;;;;;17.83;45.50;101098.72;16122057;19;129653;-60
2023/12/27 13:52:19;;;;;;;2.83;0.85;;;;;;;17.83;45.85;101095.97;16120536;19;130975;-60
2023/12/27 13:57:41;;;;;;;1.42;0.82;;;;;;;17.82;45.78;101077.66;16118098;19;129667;-61
2023/12/27 14:03:04;;;;;;;2.20;1.17;;;;;;;17.81;45.80;101070.44;16118524;19;131010;-60
2023/12/27 14:08:25;;;;;;;3.10;0.80;;;;;;;17.79;45.70;101056.00;16119023;19;129584;-60
2023/12/27 14:13:48;;;;;;;2.13;0.95;;;;;;;17.78;45.98;101042.41;16117095;19;130869;-60
2023/12/27 14:19:10;;;;;;;4.32;0.90;;;;;;;17.78;45.52;101032.16;16121511;19;130498;-60
2023/12/27 14:24:32;;;;;;;2.47;0.80;;;;;;;17.76;45.33;101023.25;16116849;19;129908;-60
2023/12/27 14:29:54;;;;;;;3.22;0.80;;;;;;;17.75;45.73;101016.03;16115100;19;130086;-60
2023/12/27 14:35:16;;;;;;;5.32;1.02;;;;;;;17.74;45.65;101008.81;16117950;19;129376;-60
2023/12/27 14:40:38;;;;;;;1.67;0.80;;;;;;;17.74;45.62;101007.97;16119615;19;129573;-58
2023/12/27 14:46:00;;;;;;;1.52;0.75;;;;;;;17.72;45.35;101005.47;16118227;19;129664;-60
2023/12/27 14:51:25;;;;;;;1.58;0.70;;;;;;;17.71;45.28;101001.00;16116301;19;130879;-62
2023/12/27 14:56:47;;;;;;;2.42;0.88;;;;;;;17.70;45.34;100993.78;16114448;19;129655;-61
2023/12/27 15:02:09;;;;;;;1.65;0.75;;;;;;;17.69;45.44;100989.34;16114557;19;130358;-63
2023/12/27 15:07:32;;;;;;;1.83;0.98;;;;;;;17.68;45.44;100987.66;16114398;19;130049;-62
2023/12/27 15:12:56;;;;;;;2.45;0.60;;;;;;;17.67;44.96;100974.88;16110226;19;130476;-65
2023/12/27 15:18:18;;;;;;;1.95;0.80;;;;;;;17.65;45.01;100963.22;16114867;19;130802;-65
2023/12/27 15:23:40;;;;;;;2.42;0.82;;;;;;;17.65;44.95;100960.44;16116007;19;134174;-62
2023/12/27 15:29:02;;;;;;;1.90;0.77;;;;;;;17.63;44.98;100949.63;16113040;19;129528;-63
2023/12/27 15:34:24;;;;;;;1.65;0.70;;;;;;;17.62;45.06;100936.03;16112000;19;129835;-66
2023/12/27 15:39:47;;;;;;;2.78;0.90;;;;;;;17.61;44.96;100923.25;16112745;19;130751;-68
2023/12/27 15:45:09;;;;;;;1.85;0.70;;;;;;;17.59;44.68;100928.22;16113273;19;130455;-63
2023/12/27 15:50:31;;;;;;;4.65;0.95;;;;;;;17.61;44.90;100912.19;16112544;19;129586;-63
2023/12/27 15:55:53;;;;;;;1.10;0.50;;;;;;;17.70;44.91;100910.78;16108885;19;129734;-61
2023/12/27 16:01:28;;;;;;;1.90;0.70;;;;;;;17.95;44.91;100904.97;16110139;19;133509;-63
2023/12/27 16:06:50;;;;;;;1.38;0.45;;;;;;;18.21;44.62;100883.41;16110679;19;130426;-61
2023/12/27 16:12:12;;;;;;;2.50;0.57;;;;;;;18.53;44.42;100865.50;16108245;19;130608;-61
2023/12/27 16:17:34;;;;;;;2.58;0.75;;;;;;;18.83;43.75;100875.50;16108524;19;129805;-62
2023/12/27 16:22:56;;;;;;;1.67;0.50;;;;;;;19.04;43.38;100866.44;16108275;19;130161;-61
2023/12/27 16:28:20;;;;;;;2.38;0.70;;;;;;;19.16;43.10;100858.03;16106847;19;131376;-65
2023/12/27 16:33:42;;;;;;;2.85;0.70;;;;;;;19.22;42.65;100829.34;16106923;19;129964;-66
2023/12/27 16:39:04;;;;;;;1.58;0.70;;;;;;;19.24;42.98;100804.13;16107407;19;129731;-66
2023/12/27 16:44:29;;;;;;;3.75;0.82;;;;;;;19.24;43.01;100795.81;16103673;19;130935;-65
2023/12/27 16:49:50;;;;;;;3.10;0.90;;;;;;;19.22;42.79;100795.22;16107788;19;131415;-65
2023/12/27 16:55:13;;;;;;;7.53;1.02;;;;;;;19.17;42.92;100775.69;16104833;19;130205;-66
2023/12/27 17:00:35;;;;;;;1.75;0.95;;;;;;;19.12;43.07;100783.94;16110183;19;129493;-65
2023/12/27 17:05:57;;;;;;;5.50;2.30;;;;;;;19.05;42.99;100782.19;16104019;19;130637;-65
2023/12/27 17:11:19;;;;;;;6.15;2.55;;;;;;;19.00;42.96;100762.69;16106912;19;130776;-65
2023/12/27 17:16:41;;;;;;;6.20;2.28;;;;;;;18.94;43.05;100738.75;16101467;19;131240;-66
2023/12/27 17:22:03;;;;;;;4.68;1.80;;;;;;;18.87;42.88;100738.06;16101015;19;130332;-65
2023/12/27 17:27:29;;;;;;;5.72;1.60;;;;;;;18.83;43.06;100726.66;16108060;19;131709;-65
2023/12/27 17:32:50;;;;;;;;;;;;;;;18.77;42.96;100724.88;16101766;19;132027;-63
2023/12/27 17:38:12;;;;;;;11.18;2.05;;;;;;;18.84;43.21;100730.25;16102718;19;131059;-65
2023/12/27 17:43:39;;;;;;;6.55;1.70;;;;;;;18.91;43.17;100728.16;16102520;19;129476;-65
2023/12/27 17:49:02;;;;;;;8.32;2.10;;;;;;;19.00;42.95;100737.72;16103552;19;129931;-64
2023/12/27 17:54:28;;;;;;;4.88;1.45;;;;;;;19.08;42.88;100728.97;16100648;19;129826;-65
2023/12/27 17:59:51;;;;;;;2.65;1.30;;;;;;;19.23;42.87;100719.25;16112669;19;130421;-65
2023/12/27 18:05:13;;;;;;;2.53;1.42;;;;;;;19.45;42.18;100712.88;16118135;19;130521;-66
2023/12/27 18:10:36;;;;;;;7.68;1.48;;;;;;;19.75;42.25;100731.88;16120400;19;129884;-66
2023/12/27 18:15:58;;;;;;;4.15;1.33;;;;;;;20.03;41.71;100723.59;16114969;19;129881;-65
2023/12/27 18:21:20;;;;;;;6.30;1.40;;;;;;;20.26;41.49;100720.50;16118146;19;131019;-65
2023/12/27 18:26:42;;;;;;;11.15;2.30;;;;;;;20.43;41.13;100725.13;16110917;19;130004;-66
2023/12/27 18:32:07;;;;;;;6.43;1.20;;;;;;;20.62;40.69;100742.22;16112324;19;129961;-66
2023/12/27 18:37:30;;;;;;;8.55;1.40;;;;;;;20.81;41.04;100742.69;16112980;19;131155;-65
2023/12/27 18:42:55;;;;;;;14.50;2.00;;;;;;;20.94;40.65;100735.84;16109283;19;133378;-64
2023/12/27 18:48:17;;;;;;;10.35;1.30;;;;;;;21.00;40.75;100732.00;16116124;19;130839;-65
2023/12/27 18:53:39;;;;;;;6.60;1.70;;;;;;;20.98;40.42;100698.06;16113320;19;130258;-64
2023/12/27 18:59:04;;;;;;;8.02;1.30;;;;;;;20.90;40.53;100702.19;16113261;19;129764;-64
2023/12/27 19:04:26;;;;;;;7.90;1.90;;;;;;;20.81;40.51;100747.44;16113947;19;130742;-64
2023/12/27 19:09:48;;;;;;;7.55;1.48;;;;;;;20.70;40.45;100735.34;16108891;19;130757;-64
2023/12/27 19:15:13;;;;;;;5.78;1.23;;;;;;;20.55;40.46;100734.13;16109196;19;129854;-64
2023/12/27 19:20:35;;;;;;;8.43;1.65;;;;;;;20.43;40.30;100725.13;16112394;19;131239;-64
2023/12/27 19:25:57;;;;;;;13.13;1.70;;;;;;;20.32;40.61;100732.53;16111326;19;130530;-65
2023/12/27 19:31:19;;;;;;;8.75;1.40;;;;;;;20.20;41.18;100738.22;16108867;19;131378;-63
2023/12/27 19:36:41;;;;;;;35.40;3.53;;;;;;;20.09;41.75;100736.44;16113769;19;129693;-66
2023/12/27 19:42:06;;;;;;;16.85;2.45;;;;;;;20.02;40.70;100708.03;16112140;19;130577;-67
2023/12/27 19:47:29;;;;;;;14.05;2.10;;;;;;;19.94;40.96;100710.13;16110106;19;130039;-65
2023/12/27 19:52:54;;;;;;;16.15;1.48;;;;;;;19.93;41.20;100727.91;16112093;19;130892;-64
2023/12/27 19:58:17;;;;;;;16.02;2.00;;;;;;;19.90;40.75;100731.22;16107320;19;130367;-65
2023/12/27 20:03:40;;;;;;;14.15;1.77;;;;;;;19.89;41.48;100732.31;16105520;19;130586;-66
2023/12/27 20:09:02;;;;;;;14.50;1.42;;;;;;;19.90;41.00;100722.88;16116006;19;129590;-67
2023/12/27 20:14:24;;;;;;;16.30;2.00;;;;;;;19.93;41.38;100727.91;16111948;19;130021;-67
2023/12/27 20:19:47;;;;;;;10.82;1.55;;;;;;;19.95;40.99;100731.25;16113625;19;130144;-67
2023/12/27 20:25:09;;;;;;;14.88;1.70;;;;;;;19.99;41.36;100754.66;16108902;19;132302;-69
2023/12/27 20:30:32;;;;;;;13.23;1.80;;;;;;;20.05;41.25;100746.41;16112116;19;129364;-67
2023/12/27 20:35:55;;;;;;;8.73;1.25;;;;;;;20.08;41.35;100756.97;16110618;19;129437;-67
2023/12/27 20:41:17;;;;;;;8.25;1.40;;;;;;;20.13;40.67;100745.94;16111733;19;129548;-64
2023/12/27 20:46:39;;;;;;;10.07;1.27;;;;;;;20.15;40.62;100746.50;16109044;19;132128;-67
2023/12/27 20:52:03;;;;;;;5.20;1.35;;;;;;;20.17;40.47;100747.09;16105778;19;129546;-66
2023/12/27 20:57:26;;;;;;;7.90;1.13;;;;;;;20.16;40.03;100759.31;16107508;19;131160;-66
2023/12/27 21:02:48;;;;;;;4.53;1.05;;;;;;;20.16;40.10;100759.31;16109753;19;130257;-66
2023/12/27 21:08:11;;;;;;;3.63;0.95;;;;;;;20.15;39.64;100777.06;16107867;19;129799;-66
2023/12/27 21:13:35;;;;;;;2.80;0.82;;;;;;;20.11;39.88;100778.69;16110316;19;130979;-66
2023/12/27 21:18:57;;;;;;;3.85;0.85;;;;;;;20.06;39.70;100782.22;16105727;19;130486;-67
2023/12/27 21:24:19;;;;;;;2.08;0.90;;;;;;;20.02;39.67;100785.78;16101257;19;129834;-66
2023/12/27 21:29:41;;;;;;;3.67;1.25;;;;;;;19.97;39.66;100783.75;16099667;19;132120;-66
2023/12/27 21:35:04;;;;;;;4.97;0.88;;;;;;;19.91;39.74;100813.41;16109462;19;129787;-67
2023/12/27 21:40:26;;;;;;;6.38;1.40;;;;;;;19.83;39.38;100805.50;16120176;19;130326;-68
2023/12/27 21:45:48;;;;;;;2.92;1.10;;;;;;;19.78;39.23;100797.13;16121646;19;129638;-65
2023/12/27 21:51:20;;;;;;;6.35;1.17;;;;;;;19.73;39.02;100777.63;16120736;19;129589;-66
2023/12/27 21:56:42;;;;;;;2.78;0.85;;;;;;;19.63;39.29;100798.59;16117993;19;129752;-66
2023/12/27 22:02:04;;;;;;;3.35;0.95;;;;;;;19.56;39.07;100803.50;16119117;19;130477;-66
2023/12/27 22:07:26;;;;;;;8.70;1.17;;;;;;;19.49;39.33;100811.16;16118640;19;131181;-67
2023/12/27 22:12:48;;;;;;;3.53;1.08;;;;;;;19.42;39.13;100810.50;16117659;19;130929;-66
2023/12/27 22:18:10;;;;;;;2.70;0.93;;;;;;;19.35;39.47;100810.69;16118254;19;130122;-66
2023/12/27 22:23:33;;;;;;;2.17;0.90;;;;;;;19.29;39.37;100811.69;16117956;19;131342;-65
2023/12/27 22:28:55;;;;;;;3.80;1.08;;;;;;;19.22;38.91;100811.84;16114405;19;131331;-65
2023/12/27 22:34:17;;;;;;;3.45;0.95;;;;;;;19.17;39.14;100836.72;16116398;19;129831;-66
2023/12/27 22:39:41;;;;;;;1.95;0.77;;;;;;;19.11;38.89;100832.16;16116946;19;129576;-66
2023/12/27 22:45:04;;;;;;;2.65;1.00;;;;;;;19.05;39.45;100845.09;16111471;19;130429;-66
2023/12/27 22:50:26;;;;;;;2.33;0.82;;;;;;;19.02;39.41;100873.31;16114061;19;131623;-66
2023/12/27 22:55:48;;;;;;;2.13;0.80;;;;;;;18.95;38.91;100872.66;16111265;19;130800;-65
2023/12/27 23:01:10;;;;;;;1.92;0.90;;;;;;;18.91;39.22;100880.63;16110179;19;130014;-66
2023/12/27 23:06:33;;;;;;;1.30;1.00;;;;;;;18.86;38.73;100864.75;16111410;19;129890;-66
2023/12/27 23:11:55;;;;;;;1.13;0.70;;;;;;;18.83;39.21;100879.09;16110295;19;129661;-66
2023/12/27 23:17:19;;;;;;;4.20;1.00;;;;;;;18.79;39.11;100875.13;16112698;19;130964;-66
2023/12/27 23:22:41;;;;;;;1.90;0.70;;;;;;;18.75;39.07;100891.44;16108705;19;130279;-65
2023/12/27 23:28:03;;;;;;;2.17;0.90;;;;;;;18.70;38.99;100880.25;16107266;19;131001;-66
2023/12/27 23:33:25;;;;;;;1.48;0.80;;;;;;;18.66;39.02;100892.91;16105844;19;130101;-65
2023/12/27 23:38:48;;;;;;;1.25;0.80;;;;;;;18.62;38.89;100880.63;16112029;19;129714;-65
2023/12/27 23:44:10;;;;;;;1.95;0.98;;;;;;;18.58;39.27;100894.16;16114790;19;129419;-65
2023/12/27 23:49:32;;;;;;;2.50;0.95;;;;;;;18.55;39.00;100899.34;16107251;19;131569;-66
2023/12/27 23:54:54;;;;;;;1.65;0.98;;;;;;;18.54;39.17;100886.59;16109432;19;130294;-65
